sensor_id;sensor_type;location;lat;lon;timestamp;P1;durP1;ratioP1;P2;durP2;ratioP2
21215;SDS011;10765;50.954;5.322;2023-04-23T00:01:46;31.33;;;28.03;;
21215;SDS011;10765;50.954;5.322;2023-04-23T00:04:15;30.30;;;27.30;;
21215;SDS011;10765;50.954;5.322;2023-04-23T00:06:43;31.20;;;28.20;;
21215;SDS011;10765;50.954;5.322;2023-04-23T00:09:12;31.73;;;28.43;;
21215;SDS011;10765;50.954;5.322;2023-04-23T00:11:41;31.23;;;28.13;;
21215;SDS011;10765;50.954;5.322;2023-04-23T00:14:08;31.40;;;28.40;;
21215;SDS011;10765;50.954;5.322;2023-04-23T00:16:36;32.13;;;27.80;;
21215;SDS011;10765;50.954;5.322;2023-04-23T00:19:03;29.93;;;26.93;;
21215;SDS011;10765;50.954;5.322;2023-04-23T00:21:32;31.07;;;27.97;;
21215;SDS011;10765;50.954;5.322;2023-04-23T00:23:59;29.83;;;26.73;;
21215;SDS011;10765;50.954;5.322;2023-04-23T00:26:26;29.37;;;26.47;;
21215;SDS011;10765;50.954;5.322;2023-04-23T00:28:52;29.80;;;26.80;;
21215;SDS011;10765;50.954;5.322;2023-04-23T00:31:19;29.47;;;26.40;;
21215;SDS011;10765;50.954;5.322;2023-04-23T00:33:48;30.00;;;27.00;;
21215;SDS011;10765;50.954;5.322;2023-04-23T00:36:15;29.73;;;26.73;;
21215;SDS011;10765;50.954;5.322;2023-04-23T00:38:43;30.00;;;26.97;;
21215;SDS011;10765;50.954;5.322;2023-04-23T00:41:10;29.80;;;26.70;;
21215;SDS011;10765;50.954;5.322;2023-04-23T00:43:37;30.67;;;27.50;;
21215;SDS011;10765;50.954;5.322;2023-04-23T00:46:05;29.53;;;26.60;;
21215;SDS011;10765;50.954;5.322;2023-04-23T00:48:32;29.73;;;26.80;;
21215;SDS011;10765;50.954;5.322;2023-04-23T00:51:02;29.87;;;26.60;;
21215;SDS011;10765;50.954;5.322;2023-04-23T00:53:30;29.40;;;26.43;;
21215;SDS011;10765;50.954;5.322;2023-04-23T00:55:59;29.43;;;26.43;;
21215;SDS011;10765;50.954;5.322;2023-04-23T00:58:28;28.57;;;25.77;;
21215;SDS011;10765;50.954;5.322;2023-04-23T01:00:55;29.37;;;26.43;;
21215;SDS011;10765;50.954;5.322;2023-04-23T01:03:23;28.53;;;25.73;;
21215;SDS011;10765;50.954;5.322;2023-04-23T01:05:53;28.40;;;25.50;;
21215;SDS011;10765;50.954;5.322;2023-04-23T01:08:21;30.40;;;27.20;;
21215;SDS011;10765;50.954;5.322;2023-04-23T01:10:49;29.93;;;26.93;;
21215;SDS011;10765;50.954;5.322;2023-04-23T01:13:19;29.87;;;26.77;;
21215;SDS011;10765;50.954;5.322;2023-04-23T01:15:47;29.43;;;26.47;;
21215;SDS011;10765;50.954;5.322;2023-04-23T01:18:14;31.17;;;28.03;;
21215;SDS011;10765;50.954;5.322;2023-04-23T01:20:44;30.70;;;27.50;;
21215;SDS011;10765;50.954;5.322;2023-04-23T01:23:12;31.87;;;28.57;;
21215;SDS011;10765;50.954;5.322;2023-04-23T01:25:39;32.93;;;29.40;;
21215;SDS011;10765;50.954;5.322;2023-04-23T01:28:06;32.80;;;29.30;;
21215;SDS011;10765;50.954;5.322;2023-04-23T01:30:34;31.73;;;28.43;;
21215;SDS011;10765;50.954;5.322;2023-04-23T01:33:01;31.30;;;28.10;;
21215;SDS011;10765;50.954;5.322;2023-04-23T01:35:30;32.53;;;29.13;;
21215;SDS011;10765;50.954;5.322;2023-04-23T01:37:58;32.10;;;28.77;;
21215;SDS011;10765;50.954;5.322;2023-04-23T01:40:29;32.63;;;29.23;;
21215;SDS011;10765;50.954;5.322;2023-04-23T01:42:56;31.87;;;28.47;;
21215;SDS011;10765;50.954;5.322;2023-04-23T01:45:23;31.07;;;27.87;;
21215;SDS011;10765;50.954;5.322;2023-04-23T01:47:50;31.40;;;28.23;;
21215;SDS011;10765;50.954;5.322;2023-04-23T01:50:17;30.10;;;27.00;;
21215;SDS011;10765;50.954;5.322;2023-04-23T01:52:45;28.47;;;25.53;;
21215;SDS011;10765;50.954;5.322;2023-04-23T01:55:12;31.77;;;28.67;;
21215;SDS011;10765;50.954;5.322;2023-04-23T01:57:41;29.07;;;26.13;;
21215;SDS011;10765;50.954;5.322;2023-04-23T02:00:08;29.33;;;26.43;;
21215;SDS011;10765;50.954;5.322;2023-04-23T02:02:37;28.77;;;25.97;;
21215;SDS011;10765;50.954;5.322;2023-04-23T02:05:05;28.00;;;25.23;;
21215;SDS011;10765;50.954;5.322;2023-04-23T02:07:36;26.37;;;23.67;;
21215;SDS011;10765;50.954;5.322;2023-04-23T02:10:04;26.07;;;23.37;;
21215;SDS011;10765;50.954;5.322;2023-04-23T02:12:32;26.10;;;23.60;;
21215;SDS011;10765;50.954;5.322;2023-04-23T02:15:00;26.13;;;23.63;;
21215;SDS011;10765;50.954;5.322;2023-04-23T02:17:27;24.73;;;22.23;;
21215;SDS011;10765;50.954;5.322;2023-04-23T02:19:55;23.20;;;20.90;;
21215;SDS011;10765;50.954;5.322;2023-04-23T02:22:22;23.50;;;21.30;;
21215;SDS011;10765;50.954;5.322;2023-04-23T02:24:50;21.37;;;19.43;;
21215;SDS011;10765;50.954;5.322;2023-04-23T02:27:18;22.07;;;19.87;;
21215;SDS011;10765;50.954;5.322;2023-04-23T02:29:45;22.13;;;20.13;;
21215;SDS011;10765;50.954;5.322;2023-04-23T02:32:14;21.53;;;19.37;;
21215;SDS011;10765;50.954;5.322;2023-04-23T02:34:41;20.90;;;18.97;;
21215;SDS011;10765;50.954;5.322;2023-04-23T02:37:08;21.67;;;19.50;;
21215;SDS011;10765;50.954;5.322;2023-04-23T02:39:36;20.80;;;18.80;;
21215;SDS011;10765;50.954;5.322;2023-04-23T02:42:03;20.97;;;18.97;;
21215;SDS011;10765;50.954;5.322;2023-04-23T02:44:30;20.77;;;18.77;;
21215;SDS011;10765;50.954;5.322;2023-04-23T02:46:57;21.20;;;19.20;;
21215;SDS011;10765;50.954;5.322;2023-04-23T02:49:25;19.90;;;18.20;;
21215;SDS011;10765;50.954;5.322;2023-04-23T02:51:52;19.73;;;17.83;;
21215;SDS011;10765;50.954;5.322;2023-04-23T02:54:19;19.87;;;17.97;;
21215;SDS011;10765;50.954;5.322;2023-04-23T02:56:46;20.47;;;18.57;;
21215;SDS011;10765;50.954;5.322;2023-04-23T02:59:13;19.47;;;17.67;;
21215;SDS011;10765;50.954;5.322;2023-04-23T03:01:40;21.33;;;19.17;;
21215;SDS011;10765;50.954;5.322;2023-04-23T03:04:07;19.57;;;17.57;;
21215;SDS011;10765;50.954;5.322;2023-04-23T03:06:35;19.93;;;18.03;;
21215;SDS011;10765;50.954;5.322;2023-04-23T03:09:02;19.87;;;17.97;;
21215;SDS011;10765;50.954;5.322;2023-04-23T03:11:29;19.53;;;17.73;;
21215;SDS011;10765;50.954;5.322;2023-04-23T03:13:56;20.53;;;18.43;;
21215;SDS011;10765;50.954;5.322;2023-04-23T03:16:23;19.80;;;18.00;;
21215;SDS011;10765;50.954;5.322;2023-04-23T03:18:52;18.30;;;16.60;;
21215;SDS011;10765;50.954;5.322;2023-04-23T03:21:19;19.37;;;17.47;;
21215;SDS011;10765;50.954;5.322;2023-04-23T03:23:47;18.43;;;16.70;;
21215;SDS011;10765;50.954;5.322;2023-04-23T03:26:14;18.70;;;16.97;;
21215;SDS011;10765;50.954;5.322;2023-04-23T03:28:41;19.50;;;17.67;;
21215;SDS011;10765;50.954;5.322;2023-04-23T03:31:08;19.17;;;17.27;;
21215;SDS011;10765;50.954;5.322;2023-04-23T03:33:35;18.13;;;16.33;;
21215;SDS011;10765;50.954;5.322;2023-04-23T03:36:02;18.07;;;16.20;;
21215;SDS011;10765;50.954;5.322;2023-04-23T03:38:29;17.63;;;15.83;;
21215;SDS011;10765;50.954;5.322;2023-04-23T03:40:57;16.80;;;15.30;;
21215;SDS011;10765;50.954;5.322;2023-04-23T03:43:24;17.07;;;15.37;;
21215;SDS011;10765;50.954;5.322;2023-04-23T03:45:51;17.80;;;16.10;;
21215;SDS011;10765;50.954;5.322;2023-04-23T03:48:18;17.20;;;15.50;;
21215;SDS011;10765;50.954;5.322;2023-04-23T03:50:45;15.77;;;14.37;;
21215;SDS011;10765;50.954;5.322;2023-04-23T03:53:12;17.30;;;15.70;;
21215;SDS011;10765;50.954;5.322;2023-04-23T03:55:41;17.57;;;15.83;;
21215;SDS011;10765;50.954;5.322;2023-04-23T03:58:10;16.00;;;14.40;;
21215;SDS011;10765;50.954;5.322;2023-04-23T04:00:37;15.97;;;14.47;;
21215;SDS011;10765;50.954;5.322;2023-04-23T04:03:03;15.23;;;13.87;;
21215;SDS011;10765;50.954;5.322;2023-04-23T04:05:30;15.47;;;14.03;;
21215;SDS011;10765;50.954;5.322;2023-04-23T04:07:57;15.97;;;14.47;;
21215;SDS011;10765;50.954;5.322;2023-04-23T04:10:24;15.43;;;14.03;;
21215;SDS011;10765;50.954;5.322;2023-04-23T04:12:51;16.23;;;14.67;;
21215;SDS011;10765;50.954;5.322;2023-04-23T04:15:20;15.40;;;13.83;;
21215;SDS011;10765;50.954;5.322;2023-04-23T04:17:47;15.60;;;14.23;;
21215;SDS011;10765;50.954;5.322;2023-04-23T04:20:14;14.47;;;13.07;;
21215;SDS011;10765;50.954;5.322;2023-04-23T04:22:41;16.23;;;14.73;;
21215;SDS011;10765;50.954;5.322;2023-04-23T04:25:08;15.53;;;14.10;;
21215;SDS011;10765;50.954;5.322;2023-04-23T04:27:36;14.17;;;12.90;;
21215;SDS011;10765;50.954;5.322;2023-04-23T04:30:05;15.10;;;13.70;;
21215;SDS011;10765;50.954;5.322;2023-04-23T04:32:34;14.00;;;12.77;;
21215;SDS011;10765;50.954;5.322;2023-04-23T04:35:02;13.97;;;12.77;;
21215;SDS011;10765;50.954;5.322;2023-04-23T04:37:30;14.27;;;13.00;;
21215;SDS011;10765;50.954;5.322;2023-04-23T04:39:57;14.13;;;12.70;;
21215;SDS011;10765;50.954;5.322;2023-04-23T04:42:25;14.30;;;13.00;;
21215;SDS011;10765;50.954;5.322;2023-04-23T04:44:52;15.67;;;13.20;;
21215;SDS011;10765;50.954;5.322;2023-04-23T04:47:19;14.07;;;12.67;;
21215;SDS011;10765;50.954;5.322;2023-04-23T04:49:47;12.97;;;11.77;;
21215;SDS011;10765;50.954;5.322;2023-04-23T04:52:14;12.47;;;11.37;;
21215;SDS011;10765;50.954;5.322;2023-04-23T04:54:41;13.50;;;12.13;;
21215;SDS011;10765;50.954;5.322;2023-04-23T04:57:08;13.90;;;12.50;;
21215;SDS011;10765;50.954;5.322;2023-04-23T04:59:35;13.60;;;12.40;;
21215;SDS011;10765;50.954;5.322;2023-04-23T05:02:02;12.47;;;11.37;;
21215;SDS011;10765;50.954;5.322;2023-04-23T05:04:29;12.57;;;11.47;;
21215;SDS011;10765;50.954;5.322;2023-04-23T05:06:57;12.40;;;11.20;;
21215;SDS011;10765;50.954;5.322;2023-04-23T05:09:24;12.37;;;11.20;;
21215;SDS011;10765;50.954;5.322;2023-04-23T05:11:51;12.13;;;11.03;;
21215;SDS011;10765;50.954;5.322;2023-04-23T05:14:18;13.90;;;11.13;;
21215;SDS011;10765;50.954;5.322;2023-04-23T05:16:45;11.70;;;10.63;;
21215;SDS011;10765;50.954;5.322;2023-04-23T05:19:12;10.07;;;9.17;;
21215;SDS011;10765;50.954;5.322;2023-04-23T05:21:39;9.63;;;8.83;;
21215;SDS011;10765;50.954;5.322;2023-04-23T05:24:08;9.07;;;8.27;;
21215;SDS011;10765;50.954;5.322;2023-04-23T05:26:34;8.10;;;7.40;;
21215;SDS011;10765;50.954;5.322;2023-04-23T05:29:02;7.27;;;6.60;;
21215;SDS011;10765;50.954;5.322;2023-04-23T05:31:29;6.70;;;6.10;;
21215;SDS011;10765;50.954;5.322;2023-04-23T05:33:56;7.07;;;6.37;;
21215;SDS011;10765;50.954;5.322;2023-04-23T05:36:23;6.40;;;5.80;;
21215;SDS011;10765;50.954;5.322;2023-04-23T05:38:49;6.93;;;5.37;;
21215;SDS011;10765;50.954;5.322;2023-04-23T05:41:18;5.47;;;4.97;;
21215;SDS011;10765;50.954;5.322;2023-04-23T05:43:45;6.07;;;4.83;;
21215;SDS011;10765;50.954;5.322;2023-04-23T05:46:12;5.90;;;4.80;;
21215;SDS011;10765;50.954;5.322;2023-04-23T05:48:39;5.30;;;4.80;;
21215;SDS011;10765;50.954;5.322;2023-04-23T05:51:05;5.47;;;4.97;;
21215;SDS011;10765;50.954;5.322;2023-04-23T05:53:33;4.93;;;4.50;;
21215;SDS011;10765;50.954;5.322;2023-04-23T05:55:59;4.90;;;4.37;;
21215;SDS011;10765;50.954;5.322;2023-04-23T05:58:28;5.97;;;4.47;;
21215;SDS011;10765;50.954;5.322;2023-04-23T06:00:54;5.40;;;4.23;;
21215;SDS011;10765;50.954;5.322;2023-04-23T06:03:21;4.03;;;3.70;;
21215;SDS011;10765;50.954;5.322;2023-04-23T06:05:48;4.53;;;3.50;;
21215;SDS011;10765;50.954;5.322;2023-04-23T06:08:15;4.67;;;3.90;;
21215;SDS011;10765;50.954;5.322;2023-04-23T06:10:42;5.67;;;3.70;;
21215;SDS011;10765;50.954;5.322;2023-04-23T06:13:10;3.90;;;3.50;;
21215;SDS011;10765;50.954;5.322;2023-04-23T06:15:38;3.93;;;3.53;;
21215;SDS011;10765;50.954;5.322;2023-04-23T06:18:05;3.50;;;3.20;;
21215;SDS011;10765;50.954;5.322;2023-04-23T06:20:32;4.63;;;3.50;;
21215;SDS011;10765;50.954;5.322;2023-04-23T06:22:59;4.27;;;3.30;;
21215;SDS011;10765;50.954;5.322;2023-04-23T06:25:26;5.77;;;3.70;;
21215;SDS011;10765;50.954;5.322;2023-04-23T06:27:53;3.53;;;3.23;;
21215;SDS011;10765;50.954;5.322;2023-04-23T06:30:22;3.77;;;3.37;;
21215;SDS011;10765;50.954;5.322;2023-04-23T06:32:50;3.87;;;3.33;;
21215;SDS011;10765;50.954;5.322;2023-04-23T06:35:17;4.23;;;3.30;;
21215;SDS011;10765;50.954;5.322;2023-04-23T06:37:44;4.40;;;3.03;;
21215;SDS011;10765;50.954;5.322;2023-04-23T06:40:11;4.10;;;2.90;;
21215;SDS011;10765;50.954;5.322;2023-04-23T06:42:38;3.67;;;2.87;;
21215;SDS011;10765;50.954;5.322;2023-04-23T06:45:05;3.90;;;3.20;;
21215;SDS011;10765;50.954;5.322;2023-04-23T06:47:32;5.90;;;3.03;;
21215;SDS011;10765;50.954;5.322;2023-04-23T06:50:01;3.03;;;2.70;;
21215;SDS011;10765;50.954;5.322;2023-04-23T06:52:29;4.57;;;3.13;;
21215;SDS011;10765;50.954;5.322;2023-04-23T06:54:56;5.87;;;3.20;;
21215;SDS011;10765;50.954;5.322;2023-04-23T06:57:23;5.20;;;3.00;;
21215;SDS011;10765;50.954;5.322;2023-04-23T06:59:50;3.87;;;3.00;;
21215;SDS011;10765;50.954;5.322;2023-04-23T07:02:17;5.10;;;2.90;;
21215;SDS011;10765;50.954;5.322;2023-04-23T07:04:44;4.43;;;3.20;;
21215;SDS011;10765;50.954;5.322;2023-04-23T07:07:12;5.60;;;3.00;;
21215;SDS011;10765;50.954;5.322;2023-04-23T07:09:40;3.80;;;3.40;;
21215;SDS011;10765;50.954;5.322;2023-04-23T07:12:07;3.90;;;3.07;;
21215;SDS011;10765;50.954;5.322;2023-04-23T07:14:34;3.43;;;2.60;;
21215;SDS011;10765;50.954;5.322;2023-04-23T07:17:01;3.80;;;2.97;;
21215;SDS011;10765;50.954;5.322;2023-04-23T07:19:28;4.83;;;2.90;;
21215;SDS011;10765;50.954;5.322;2023-04-23T07:21:55;4.70;;;2.73;;
21215;SDS011;10765;50.954;5.322;2023-04-23T07:24:23;5.07;;;2.80;;
21215;SDS011;10765;50.954;5.322;2023-04-23T07:26:50;3.87;;;2.90;;
21215;SDS011;10765;50.954;5.322;2023-04-23T07:29:17;4.83;;;2.80;;
21215;SDS011;10765;50.954;5.322;2023-04-23T07:31:44;3.70;;;2.60;;
21215;SDS011;10765;50.954;5.322;2023-04-23T07:34:12;4.97;;;2.60;;
21215;SDS011;10765;50.954;5.322;2023-04-23T07:36:40;4.40;;;2.83;;
21215;SDS011;10765;50.954;5.322;2023-04-23T07:39:07;4.63;;;2.37;;
21215;SDS011;10765;50.954;5.322;2023-04-23T07:41:35;4.70;;;2.80;;
21215;SDS011;10765;50.954;5.322;2023-04-23T07:44:02;3.80;;;2.57;;
21215;SDS011;10765;50.954;5.322;2023-04-23T07:46:29;5.27;;;2.53;;
21215;SDS011;10765;50.954;5.322;2023-04-23T07:48:56;5.33;;;3.07;;
21215;SDS011;10765;50.954;5.322;2023-04-23T07:51:23;3.37;;;2.73;;
21215;SDS011;10765;50.954;5.322;2023-04-23T07:53:51;4.37;;;2.50;;
21215;SDS011;10765;50.954;5.322;2023-04-23T07:56:18;3.20;;;2.17;;
21215;SDS011;10765;50.954;5.322;2023-04-23T07:58:47;5.67;;;2.70;;
21215;SDS011;10765;50.954;5.322;2023-04-23T08:01:14;3.40;;;2.43;;
21215;SDS011;10765;50.954;5.322;2023-04-23T08:03:41;4.90;;;2.53;;
21215;SDS011;10765;50.954;5.322;2023-04-23T08:06:09;3.40;;;2.37;;
21215;SDS011;10765;50.954;5.322;2023-04-23T08:08:36;5.10;;;2.70;;
21215;SDS011;10765;50.954;5.322;2023-04-23T08:11:03;5.20;;;2.37;;
21215;SDS011;10765;50.954;5.322;2023-04-23T08:13:30;4.77;;;2.23;;
21215;SDS011;10765;50.954;5.322;2023-04-23T08:15:58;5.80;;;2.43;;
21215;SDS011;10765;50.954;5.322;2023-04-23T08:18:25;5.23;;;2.53;;
21215;SDS011;10765;50.954;5.322;2023-04-23T08:20:52;4.30;;;2.07;;
21215;SDS011;10765;50.954;5.322;2023-04-23T08:23:20;5.77;;;2.50;;
21215;SDS011;10765;50.954;5.322;2023-04-23T08:25:47;4.73;;;2.10;;
21215;SDS011;10765;50.954;5.322;2023-04-23T08:28:14;5.13;;;2.20;;
21215;SDS011;10765;50.954;5.322;2023-04-23T08:30:41;6.70;;;2.60;;
21215;SDS011;10765;50.954;5.322;2023-04-23T08:33:10;4.13;;;2.50;;
21215;SDS011;10765;50.954;5.322;2023-04-23T08:35:37;6.10;;;2.20;;
21215;SDS011;10765;50.954;5.322;2023-04-23T08:38:04;5.83;;;2.60;;
21215;SDS011;10765;50.954;5.322;2023-04-23T08:40:31;5.07;;;2.53;;
21215;SDS011;10765;50.954;5.322;2023-04-23T08:43:01;5.07;;;2.57;;
21215;SDS011;10765;50.954;5.322;2023-04-23T08:45:31;5.37;;;2.50;;
21215;SDS011;10765;50.954;5.322;2023-04-23T08:48:05;4.17;;;2.23;;
21215;SDS011;10765;50.954;5.322;2023-04-23T08:50:34;4.70;;;2.37;;
21215;SDS011;10765;50.954;5.322;2023-04-23T08:53:03;6.57;;;2.67;;
21215;SDS011;10765;50.954;5.322;2023-04-23T08:55:32;5.37;;;2.47;;
21215;SDS011;10765;50.954;5.322;2023-04-23T08:58:00;5.30;;;2.50;;
21215;SDS011;10765;50.954;5.322;2023-04-23T09:00:30;4.23;;;2.13;;
21215;SDS011;10765;50.954;5.322;2023-04-23T09:02:58;5.50;;;2.50;;
21215;SDS011;10765;50.954;5.322;2023-04-23T09:05:25;5.43;;;2.30;;
21215;SDS011;10765;50.954;5.322;2023-04-23T09:07:54;5.77;;;2.37;;
21215;SDS011;10765;50.954;5.322;2023-04-23T09:10:23;4.20;;;2.40;;
21215;SDS011;10765;50.954;5.322;2023-04-23T09:12:49;4.20;;;2.13;;
21215;SDS011;10765;50.954;5.322;2023-04-23T09:15:17;5.17;;;2.10;;
21215;SDS011;10765;50.954;5.322;2023-04-23T09:17:44;4.87;;;2.20;;
21215;SDS011;10765;50.954;5.322;2023-04-23T09:20:12;6.00;;;2.33;;
21215;SDS011;10765;50.954;5.322;2023-04-23T09:22:40;4.47;;;2.27;;
21215;SDS011;10765;50.954;5.322;2023-04-23T09:25:10;5.67;;;2.00;;
21215;SDS011;10765;50.954;5.322;2023-04-23T09:27:39;2.63;;;1.70;;
21215;SDS011;10765;50.954;5.322;2023-04-23T09:30:07;5.03;;;2.10;;
21215;SDS011;10765;50.954;5.322;2023-04-23T09:32:35;4.97;;;2.10;;
21215;SDS011;10765;50.954;5.322;2023-04-23T09:35:03;4.43;;;2.20;;
21215;SDS011;10765;50.954;5.322;2023-04-23T09:37:32;4.17;;;1.70;;
21215;SDS011;10765;50.954;5.322;2023-04-23T09:40:00;6.33;;;1.90;;
21215;SDS011;10765;50.954;5.322;2023-04-23T09:42:29;5.10;;;1.60;;
21215;SDS011;10765;50.954;5.322;2023-04-23T09:44:58;4.43;;;1.90;;
21215;SDS011;10765;50.954;5.322;2023-04-23T09:47:30;3.57;;;1.90;;
21215;SDS011;10765;50.954;5.322;2023-04-23T09:49:57;3.00;;;1.67;;
21215;SDS011;10765;50.954;5.322;2023-04-23T09:52:25;3.70;;;2.03;;
21215;SDS011;10765;50.954;5.322;2023-04-23T09:54:54;3.27;;;1.80;;
21215;SDS011;10765;50.954;5.322;2023-04-23T09:57:22;3.93;;;1.57;;
21215;SDS011;10765;50.954;5.322;2023-04-23T09:59:51;3.63;;;1.60;;
21215;SDS011;10765;50.954;5.322;2023-04-23T10:02:18;6.03;;;1.70;;
21215;SDS011;10765;50.954;5.322;2023-04-23T10:04:49;5.87;;;1.50;;
21215;SDS011;10765;50.954;5.322;2023-04-23T10:07:17;2.63;;;1.43;;
21215;SDS011;10765;50.954;5.322;2023-04-23T10:09:45;3.67;;;1.70;;
21215;SDS011;10765;50.954;5.322;2023-04-23T10:12:13;3.63;;;1.90;;
21215;SDS011;10765;50.954;5.322;2023-04-23T10:14:40;5.50;;;2.00;;
21215;SDS011;10765;50.954;5.322;2023-04-23T10:17:10;4.13;;;1.60;;
21215;SDS011;10765;50.954;5.322;2023-04-23T10:19:37;3.47;;;1.67;;
21215;SDS011;10765;50.954;5.322;2023-04-23T10:22:07;3.93;;;1.60;;
21215;SDS011;10765;50.954;5.322;2023-04-23T10:24:38;3.17;;;1.20;;
21215;SDS011;10765;50.954;5.322;2023-04-23T10:27:08;3.57;;;1.53;;
21215;SDS011;10765;50.954;5.322;2023-04-23T10:29:38;4.47;;;1.60;;
21215;SDS011;10765;50.954;5.322;2023-04-23T10:32:05;4.60;;;1.63;;
21215;SDS011;10765;50.954;5.322;2023-04-23T10:34:33;3.60;;;1.27;;
21215;SDS011;10765;50.954;5.322;2023-04-23T10:37:00;5.77;;;1.57;;
21215;SDS011;10765;50.954;5.322;2023-04-23T10:39:29;4.90;;;2.27;;
21215;SDS011;10765;50.954;5.322;2023-04-23T10:41:58;3.87;;;1.40;;
21215;SDS011;10765;50.954;5.322;2023-04-23T10:44:32;4.33;;;1.40;;
21215;SDS011;10765;50.954;5.322;2023-04-23T10:47:02;3.80;;;1.37;;
21215;SDS011;10765;50.954;5.322;2023-04-23T10:49:30;5.37;;;1.63;;
21215;SDS011;10765;50.954;5.322;2023-04-23T10:51:59;4.37;;;1.53;;
21215;SDS011;10765;50.954;5.322;2023-04-23T10:54:27;4.03;;;1.43;;
21215;SDS011;10765;50.954;5.322;2023-04-23T10:56:57;4.17;;;1.50;;
21215;SDS011;10765;50.954;5.322;2023-04-23T10:59:26;3.63;;;1.60;;
21215;SDS011;10765;50.954;5.322;2023-04-23T11:01:55;9.67;;;7.50;;
21215;SDS011;10765;50.954;5.322;2023-04-23T11:04:24;3.20;;;1.47;;
21215;SDS011;10765;50.954;5.322;2023-04-23T11:06:53;5.03;;;1.73;;
21215;SDS011;10765;50.954;5.322;2023-04-23T11:09:29;3.77;;;1.57;;
21215;SDS011;10765;50.954;5.322;2023-04-23T11:11:57;4.80;;;1.60;;
21215;SDS011;10765;50.954;5.322;2023-04-23T11:14:35;4.20;;;1.63;;
21215;SDS011;10765;50.954;5.322;2023-04-23T11:17:03;7.10;;;1.70;;
21215;SDS011;10765;50.954;5.322;2023-04-23T11:19:32;4.93;;;1.60;;
21215;SDS011;10765;50.954;5.322;2023-04-23T11:22:01;4.80;;;1.40;;
21215;SDS011;10765;50.954;5.322;2023-04-23T11:24:32;4.03;;;1.60;;
21215;SDS011;10765;50.954;5.322;2023-04-23T11:27:01;5.10;;;1.50;;
21215;SDS011;10765;50.954;5.322;2023-04-23T11:29:30;5.07;;;1.67;;
21215;SDS011;10765;50.954;5.322;2023-04-23T11:31:58;3.13;;;1.23;;
21215;SDS011;10765;50.954;5.322;2023-04-23T11:34:25;5.43;;;1.67;;
21215;SDS011;10765;50.954;5.322;2023-04-23T11:36:53;4.03;;;1.20;;
21215;SDS011;10765;50.954;5.322;2023-04-23T11:39:21;2.73;;;1.30;;
21215;SDS011;10765;50.954;5.322;2023-04-23T11:41:51;3.20;;;1.40;;
21215;SDS011;10765;50.954;5.322;2023-04-23T11:44:18;2.00;;;1.50;;
21215;SDS011;10765;50.954;5.322;2023-04-23T11:46:46;5.10;;;1.50;;
21215;SDS011;10765;50.954;5.322;2023-04-23T11:49:13;5.10;;;1.60;;
21215;SDS011;10765;50.954;5.322;2023-04-23T11:51:41;4.40;;;1.40;;
21215;SDS011;10765;50.954;5.322;2023-04-23T11:54:09;4.57;;;1.40;;
21215;SDS011;10765;50.954;5.322;2023-04-23T11:56:37;4.13;;;1.60;;
21215;SDS011;10765;50.954;5.322;2023-04-23T11:59:06;3.43;;;1.63;;
21215;SDS011;10765;50.954;5.322;2023-04-23T12:01:42;4.83;;;1.67;;
21215;SDS011;10765;50.954;5.322;2023-04-23T12:04:11;4.47;;;1.47;;
21215;SDS011;10765;50.954;5.322;2023-04-23T12:06:40;3.57;;;1.53;;
21215;SDS011;10765;50.954;5.322;2023-04-23T12:09:08;3.50;;;1.47;;
21215;SDS011;10765;50.954;5.322;2023-04-23T12:11:36;3.33;;;1.30;;
21215;SDS011;10765;50.954;5.322;2023-04-23T12:14:03;3.60;;;1.60;;
21215;SDS011;10765;50.954;5.322;2023-04-23T12:16:34;6.27;;;1.50;;
21215;SDS011;10765;50.954;5.322;2023-04-23T12:19:02;3.67;;;1.40;;
21215;SDS011;10765;50.954;5.322;2023-04-23T12:21:30;4.03;;;1.60;;
21215;SDS011;10765;50.954;5.322;2023-04-23T12:23:57;4.23;;;1.27;;
21215;SDS011;10765;50.954;5.322;2023-04-23T12:26:24;3.67;;;2.03;;
21215;SDS011;10765;50.954;5.322;2023-04-23T12:28:51;3.47;;;1.50;;
21215;SDS011;10765;50.954;5.322;2023-04-23T12:31:18;5.90;;;1.30;;
21215;SDS011;10765;50.954;5.322;2023-04-23T12:33:52;3.70;;;1.50;;
21215;SDS011;10765;50.954;5.322;2023-04-23T12:36:24;7.93;;;1.53;;
21215;SDS011;10765;50.954;5.322;2023-04-23T12:38:52;3.03;;;1.40;;
21215;SDS011;10765;50.954;5.322;2023-04-23T12:41:25;5.07;;;1.40;;
21215;SDS011;10765;50.954;5.322;2023-04-23T12:43:52;5.23;;;1.57;;
21215;SDS011;10765;50.954;5.322;2023-04-23T12:46:19;3.80;;;1.50;;
21215;SDS011;10765;50.954;5.322;2023-04-23T12:48:47;5.20;;;1.83;;
21215;SDS011;10765;50.954;5.322;2023-04-23T12:51:14;3.60;;;1.40;;
21215;SDS011;10765;50.954;5.322;2023-04-23T12:53:41;3.80;;;1.53;;
21215;SDS011;10765;50.954;5.322;2023-04-23T12:56:08;3.37;;;1.30;;
21215;SDS011;10765;50.954;5.322;2023-04-23T12:58:35;4.10;;;1.30;;
21215;SDS011;10765;50.954;5.322;2023-04-23T13:01:01;3.83;;;1.33;;
21215;SDS011;10765;50.954;5.322;2023-04-23T13:03:28;2.90;;;1.37;;
21215;SDS011;10765;50.954;5.322;2023-04-23T13:05:57;3.47;;;1.20;;
21215;SDS011;10765;50.954;5.322;2023-04-23T13:08:23;3.40;;;1.43;;
21215;SDS011;10765;50.954;5.322;2023-04-23T13:10:50;7.20;;;1.47;;
21215;SDS011;10765;50.954;5.322;2023-04-23T13:13:17;4.70;;;1.50;;
21215;SDS011;10765;50.954;5.322;2023-04-23T13:15:44;5.03;;;1.40;;
21215;SDS011;10765;50.954;5.322;2023-04-23T13:18:11;3.30;;;1.13;;
21215;SDS011;10765;50.954;5.322;2023-04-23T13:20:38;3.97;;;1.13;;
21215;SDS011;10765;50.954;5.322;2023-04-23T13:23:06;4.03;;;1.43;;
21215;SDS011;10765;50.954;5.322;2023-04-23T13:25:35;4.67;;;1.60;;
21215;SDS011;10765;50.954;5.322;2023-04-23T13:28:02;3.43;;;1.70;;
21215;SDS011;10765;50.954;5.322;2023-04-23T13:30:29;3.57;;;1.43;;
21215;SDS011;10765;50.954;5.322;2023-04-23T13:32:56;3.93;;;1.30;;
21215;SDS011;10765;50.954;5.322;2023-04-23T13:35:23;3.70;;;1.07;;
21215;SDS011;10765;50.954;5.322;2023-04-23T13:37:50;4.20;;;1.17;;
21215;SDS011;10765;50.954;5.322;2023-04-23T13:40:18;3.53;;;1.33;;
21215;SDS011;10765;50.954;5.322;2023-04-23T13:42:45;3.47;;;1.20;;
21215;SDS011;10765;50.954;5.322;2023-04-23T13:45:14;3.47;;;1.33;;
21215;SDS011;10765;50.954;5.322;2023-04-23T13:47:41;2.57;;;1.30;;
21215;SDS011;10765;50.954;5.322;2023-04-23T13:50:08;2.80;;;1.33;;
21215;SDS011;10765;50.954;5.322;2023-04-23T13:52:36;2.13;;;1.10;;
21215;SDS011;10765;50.954;5.322;2023-04-23T13:55:04;4.83;;;1.20;;
21215;SDS011;10765;50.954;5.322;2023-04-23T13:57:33;2.93;;;1.27;;
21215;SDS011;10765;50.954;5.322;2023-04-23T14:00:00;3.97;;;1.43;;
21215;SDS011;10765;50.954;5.322;2023-04-23T14:02:28;3.83;;;1.30;;
21215;SDS011;10765;50.954;5.322;2023-04-23T14:04:55;2.70;;;1.20;;
21215;SDS011;10765;50.954;5.322;2023-04-23T14:07:22;3.03;;;1.30;;
21215;SDS011;10765;50.954;5.322;2023-04-23T14:09:49;1.77;;;1.10;;
21215;SDS011;10765;50.954;5.322;2023-04-23T14:12:16;2.53;;;1.30;;
21215;SDS011;10765;50.954;5.322;2023-04-23T14:14:45;2.30;;;1.10;;
21215;SDS011;10765;50.954;5.322;2023-04-23T14:17:12;2.97;;;0.90;;
21215;SDS011;10765;50.954;5.322;2023-04-23T14:19:38;2.07;;;1.00;;
21215;SDS011;10765;50.954;5.322;2023-04-23T14:22:05;3.37;;;1.30;;
21215;SDS011;10765;50.954;5.322;2023-04-23T14:24:33;2.30;;;0.93;;
21215;SDS011;10765;50.954;5.322;2023-04-23T14:27:04;2.50;;;1.20;;
21215;SDS011;10765;50.954;5.322;2023-04-23T14:29:33;1.70;;;1.03;;
21215;SDS011;10765;50.954;5.322;2023-04-23T14:32:06;2.97;;;1.20;;
21215;SDS011;10765;50.954;5.322;2023-04-23T14:34:33;4.17;;;1.23;;
21215;SDS011;10765;50.954;5.322;2023-04-23T14:37:00;2.73;;;1.27;;
21215;SDS011;10765;50.954;5.322;2023-04-23T14:39:27;3.10;;;1.53;;
21215;SDS011;10765;50.954;5.322;2023-04-23T14:41:54;3.40;;;1.47;;